createdAt,value
2018-04-10T00:02:15.785Z,51.20
2018-04-10T00:04:44.028Z,51.50
2018-04-10T00:07:11.526Z,51.40
2018-04-10T00:09:39.482Z,51.70
2018-04-10T00:12:07.782Z,52.10
2018-04-10T00:14:35.645Z,52.00
2018-04-10T00:17:03.412Z,52.20
2018-04-10T00:19:30.918Z,52.40
2018-04-10T00:21:58.827Z,53.50
2018-04-10T00:24:26.495Z,53.10
2018-04-10T00:26:54.359Z,53.60
2018-04-10T00:29:21.847Z,54.00
2018-04-10T00:31:49.677Z,54.20
2018-04-10T00:34:17.462Z,54.20
2018-04-10T00:36:45.097Z,55.10
2018-04-10T00:39:13.353Z,55.40
2018-04-10T00:41:40.950Z,56.20
2018-04-10T00:44:08.424Z,57.30
2018-04-10T00:46:35.951Z,57.00
2018-04-10T00:49:04.243Z,57.40
2018-04-10T00:51:31.717Z,57.70
2018-04-10T00:53:59.203Z,58.10
2018-04-10T00:56:28.133Z,58.40
2018-04-10T00:58:55.645Z,59.30
2018-04-10T01:01:23.763Z,59.00
2018-04-10T01:03:51.999Z,59.30
2018-04-10T01:06:19.907Z,59.30
2018-04-10T01:08:53.944Z,60.00
2018-04-10T01:11:21.479Z,60.00
2018-04-10T01:13:48.983Z,60.60
2018-04-10T01:16:16.468Z,60.60
2018-04-10T01:18:43.952Z,60.60
2018-04-10T01:21:12.315Z,61.50
2018-04-10T01:23:40.265Z,61.40
2018-04-10T01:26:07.747Z,62.20
2018-04-10T01:28:36.330Z,62.70
2018-04-10T01:31:04.707Z,63.40
2018-04-10T01:33:32.574Z,63.40
2018-04-10T01:36:00.064Z,63.80
2018-04-10T01:38:28.104Z,64.00
2018-04-10T01:40:56.479Z,64.50
2018-04-10T01:43:23.977Z,64.50
2018-04-10T01:45:51.921Z,64.60
2018-04-10T01:48:19.413Z,65.10
2018-04-10T01:50:46.896Z,65.00
2018-04-10T01:53:14.394Z,65.20
2018-04-10T01:55:43.063Z,65.10
2018-04-10T01:58:11.323Z,65.30
2018-04-10T02:00:39.305Z,65.20
2018-04-10T02:03:07.189Z,65.00
2018-04-10T02:05:34.684Z,65.50
2018-04-10T02:08:02.513Z,64.90
2018-04-10T02:10:42.180Z,65.30
2018-04-10T02:29:35.204Z,62.40
2018-04-10T02:32:04.046Z,62.50
2018-04-10T02:34:31.842Z,62.40
2018-04-10T02:36:59.353Z,62.40
2018-04-10T02:39:27.186Z,62.40
2018-04-10T02:41:54.984Z,62.60
2018-04-10T02:44:23.577Z,63.50
2018-04-10T02:46:51.107Z,63.50
2018-04-10T02:49:19.063Z,63.30
2018-04-10T02:51:46.565Z,63.30
2018-04-10T02:54:14.215Z,63.80
2018-04-10T02:56:42.059Z,64.80
2018-04-10T02:59:09.920Z,65.10
2018-04-10T03:01:37.416Z,65.20
2018-04-10T03:04:05.047Z,65.60
2018-04-10T03:06:32.573Z,65.80
2018-04-10T03:09:00.061Z,66.10
2018-04-10T03:11:28.238Z,66.50
2018-04-10T03:13:55.767Z,66.80
2018-04-10T03:16:23.696Z,67.20
2018-04-10T03:18:51.205Z,67.10
2018-04-10T03:21:19.825Z,67.80
2018-04-10T03:23:47.325Z,67.80
2018-04-10T03:26:14.808Z,67.50
2018-04-10T03:28:43.632Z,67.80
2018-04-10T03:31:11.645Z,67.80
2018-04-10T03:33:39.631Z,68.00
2018-04-10T03:36:07.535Z,68.40
2018-04-10T03:38:35.775Z,68.60
2018-04-10T03:41:03.593Z,68.40
2018-04-10T03:43:31.560Z,68.70
2018-04-10T03:45:59.358Z,68.80
2018-04-10T03:48:27.243Z,69.00
2018-04-10T03:50:55.124Z,68.80
2018-04-10T03:53:22.602Z,69.00
2018-04-10T03:55:50.937Z,68.90
2018-04-10T04:00:52.246Z,68.80
2018-04-10T04:03:23.124Z,68.50
2018-04-10T04:05:50.948Z,68.70
2018-04-10T04:08:19.204Z,69.10
2018-04-10T04:10:46.906Z,69.00
2018-04-10T04:13:14.458Z,69.80
2018-04-10T04:15:41.948Z,69.70
2018-04-10T04:18:21.694Z,69.60
2018-04-10T04:21:01.834Z,69.70
2018-04-10T04:26:14.127Z,69.50
2018-04-10T04:28:41.951Z,69.60
2018-04-10T07:31:14.704Z,33.60
2018-04-10T07:33:43.304Z,33.50
2018-04-10T07:36:11.092Z,34.50
2018-04-10T07:38:38.656Z,34.20
2018-04-10T07:41:06.765Z,35.60
2018-04-10T07:43:35.029Z,36.60
2018-04-10T07:46:03.471Z,38.60
2018-04-10T07:48:30.961Z,38.60
2018-04-10T07:50:58.693Z,39.70
2018-04-10T07:53:26.528Z,42.30
2018-04-10T07:55:54.369Z,42.00
2018-04-10T07:58:21.877Z,43.10
2018-04-10T08:00:49.433Z,44.60
2018-04-10T08:03:17.370Z,45.90
2018-04-10T08:05:45.113Z,46.40
2018-04-10T08:08:13.620Z,48.70
2018-04-10T08:10:41.132Z,49.20
2018-04-10T08:13:08.654Z,49.60
2018-04-10T08:15:36.369Z,50.50
2018-04-10T08:18:04.268Z,50.80
2018-04-10T08:20:31.755Z,51.30
2018-04-10T08:22:59.689Z,52.40
2018-04-10T08:25:27.255Z,53.30
2018-04-10T08:27:55.160Z,54.20
2018-04-10T08:30:22.670Z,54.00
2018-04-10T08:32:50.732Z,55.80
2018-04-10T08:35:19.109Z,55.50
2018-04-10T08:37:46.623Z,55.40
2018-04-10T08:40:14.123Z,56.20
2018-04-10T08:42:42.197Z,55.60
2018-04-10T08:45:10.023Z,55.40
2018-04-10T08:47:37.513Z,56.20
2018-04-10T08:50:05.905Z,56.80
2018-04-10T08:52:34.099Z,56.70
2018-04-10T08:55:01.597Z,56.60
2018-04-10T08:57:29.152Z,55.50
2018-04-10T08:59:56.640Z,55.30
2018-04-10T09:02:24.545Z,55.10
2018-04-10T09:04:52.407Z,54.70
2018-04-10T09:07:20.163Z,55.50
2018-04-10T09:09:47.705Z,54.60
2018-04-10T09:12:16.264Z,54.10
2018-04-10T09:14:43.828Z,54.10
2018-04-10T09:17:11.625Z,53.70
2018-04-10T09:19:40.477Z,53.20
2018-04-10T09:22:08.017Z,52.60
2018-04-10T09:24:35.508Z,52.60
2018-04-10T09:27:03.053Z,52.90
2018-04-10T09:29:30.955Z,53.30
2018-04-10T09:31:58.470Z,53.80
2018-04-10T09:34:27.211Z,51.50
2018-04-10T09:36:54.753Z,52.40
2018-04-10T09:39:22.633Z,54.50
2018-04-10T09:41:50.144Z,53.30
2018-04-10T09:44:18.467Z,53.20
2018-04-10T09:46:48.029Z,53.00
2018-04-10T09:49:15.755Z,53.10
2018-04-10T09:51:43.407Z,52.60
2018-04-10T09:54:10.904Z,52.60
2018-04-10T09:56:39.925Z,52.50
2018-04-10T09:59:07.806Z,52.50
2018-04-10T10:01:35.452Z,52.40
2018-04-10T10:04:02.972Z,51.80
2018-04-10T10:06:31.327Z,50.90
2018-04-10T10:08:58.820Z,50.70
2018-04-10T10:11:26.371Z,51.30
2018-04-10T10:13:54.296Z,50.40
2018-04-10T10:16:21.817Z,50.30
2018-04-10T10:18:49.880Z,50.40
2018-04-10T10:21:17.424Z,51.60
2018-04-10T10:23:45.336Z,50.00
2018-04-10T10:26:13.585Z,47.80
2018-04-10T10:28:41.867Z,48.40
2018-04-10T10:31:10.272Z,48.90
2018-04-10T10:33:38.048Z,48.80
2018-04-10T10:36:06.010Z,47.90
2018-04-10T10:38:33.904Z,51.80
2018-04-10T10:41:01.594Z,48.30
2018-04-10T10:43:30.841Z,49.00
2018-04-10T10:45:58.976Z,48.90
2018-04-10T10:48:26.500Z,49.70
2018-04-10T10:50:54.025Z,48.40
2018-04-10T10:53:21.791Z,48.40
2018-04-10T10:55:49.633Z,48.20
2018-04-10T10:58:17.500Z,47.70
2018-04-10T11:00:45.957Z,48.60
2018-04-10T11:03:13.888Z,48.60
2018-04-10T11:05:41.416Z,48.40
2018-04-10T11:08:09.216Z,48.10
2018-04-10T11:10:36.765Z,48.10
2018-04-10T11:13:07.232Z,48.30
2018-04-10T11:15:34.840Z,48.60
2018-04-10T11:18:02.368Z,48.30
2018-04-10T11:20:30.290Z,48.70
2018-04-10T11:22:57.915Z,48.80
2018-04-10T11:25:26.191Z,49.40
2018-04-10T11:27:53.699Z,49.40
2018-04-10T11:30:21.640Z,49.20
2018-04-10T11:32:49.610Z,49.30
2018-04-10T11:35:17.373Z,50.50
2018-04-10T11:37:44.885Z,50.00
2018-04-10T11:40:12.906Z,49.40
2018-04-10T11:42:40.714Z,49.60
2018-04-10T11:45:09.659Z,48.80
2018-04-10T11:47:37.181Z,49.00
2018-04-10T11:50:05.483Z,48.90
2018-04-10T11:52:32.970Z,48.90
2018-04-10T11:55:00.543Z,47.40
2018-04-10T11:57:28.761Z,48.70
2018-04-10T11:59:57.029Z,48.10
2018-04-10T12:02:25.159Z,48.10
2018-04-10T12:04:54.850Z,47.20
2018-04-10T12:07:22.590Z,47.60
2018-04-10T12:09:51.197Z,46.80
2018-04-10T12:12:19.656Z,46.80
2018-04-10T12:14:48.824Z,46.10
2018-04-10T12:17:17.320Z,46.30
2018-04-10T12:19:45.893Z,44.60
2018-04-10T12:22:14.631Z,43.60
2018-04-10T12:24:42.490Z,43.60
2018-04-10T12:27:10.782Z,44.10
2018-04-10T12:29:38.398Z,44.10
2018-04-10T12:32:09.444Z,44.30
2018-04-10T12:34:37.571Z,44.10
2018-04-10T12:37:07.077Z,43.60
2018-04-10T12:39:34.624Z,44.50
2018-04-10T12:42:02.562Z,45.00
2018-04-10T12:44:30.093Z,44.70
2018-04-10T12:46:57.591Z,44.70
2018-04-10T12:49:25.104Z,45.10
2018-04-10T12:51:52.998Z,45.90
2018-04-10T12:54:20.493Z,45.80
2018-04-10T12:56:48.338Z,45.30
2018-04-10T12:59:15.861Z,45.90
2018-04-10T13:01:44.915Z,46.40
2018-04-10T13:04:12.402Z,46.60
2018-04-10T13:06:41.010Z,45.10
2018-04-10T13:09:08.775Z,45.10
2018-04-10T13:11:36.313Z,44.60
2018-04-10T13:14:06.543Z,45.50
2018-04-10T13:16:36.963Z,44.40
2018-04-10T13:19:05.023Z,43.10
2018-04-10T13:21:33.729Z,43.50
2018-04-10T13:36:37.760Z,41.90
2018-04-10T13:39:06.146Z,41.30
2018-04-10T13:41:34.570Z,40.20
2018-04-10T13:44:02.648Z,40.20
2018-04-10T13:46:30.258Z,39.60
2018-04-10T13:48:58.540Z,38.30
2018-04-10T13:51:26.027Z,38.20
2018-04-10T13:53:54.062Z,35.10
2018-04-10T13:56:23.293Z,36.70
2018-04-10T13:58:51.616Z,36.50
2018-04-10T14:01:19.164Z,36.50
2018-04-10T14:03:46.667Z,37.40
2018-04-10T14:06:15.252Z,36.20
2018-04-10T14:08:42.872Z,35.50
2018-04-10T14:11:10.369Z,36.40
2018-04-10T14:13:38.026Z,35.50
2018-04-10T14:16:05.933Z,35.80
2018-04-10T14:18:33.434Z,35.10
2018-04-10T14:21:01.999Z,37.20
2018-04-10T14:23:29.567Z,37.20
2018-04-10T14:25:58.508Z,37.30
2018-04-10T14:28:26.475Z,36.60
2018-04-10T14:30:54.037Z,38.60
2018-04-10T14:33:21.817Z,37.60
2018-04-10T14:35:49.928Z,37.50
2018-04-10T14:38:17.768Z,37.90
2018-04-10T14:40:45.280Z,38.60
2018-04-10T14:43:13.098Z,39.10
2018-04-10T14:45:40.972Z,39.20
2018-04-10T14:48:09.250Z,39.40
2018-04-10T14:50:38.374Z,38.80
2018-04-10T14:53:06.717Z,39.80
2018-04-10T14:55:34.506Z,39.60
2018-04-10T14:58:03.349Z,41.30
2018-04-10T15:00:32.041Z,40.30
2018-04-10T15:03:00.063Z,40.30
2018-04-10T15:05:28.056Z,40.20
2018-04-10T15:07:56.354Z,40.70
2018-04-10T15:10:24.046Z,40.70
2018-04-10T15:12:51.566Z,40.80
2018-04-10T15:15:19.412Z,40.50
2018-04-10T15:17:48.058Z,41.10
2018-04-10T15:20:15.855Z,41.10
2018-04-10T15:22:43.651Z,41.30
2018-04-10T15:25:11.365Z,41.40
2018-04-10T15:27:39.643Z,42.10
2018-04-10T15:30:07.179Z,42.10
2018-04-10T15:32:34.739Z,42.20
2018-04-10T15:35:02.810Z,42.40
2018-04-10T15:37:30.446Z,42.10
2018-04-10T15:39:59.238Z,42.50
2018-04-10T15:42:27.002Z,42.00
2018-04-10T15:44:57.118Z,42.20
2018-04-10T15:47:25.877Z,41.80
2018-04-10T15:49:54.563Z,41.80
2018-04-10T15:52:22.466Z,41.70
2018-04-10T15:54:50.712Z,41.90
2018-04-10T15:57:19.075Z,42.30
2018-04-10T15:59:47.512Z,42.20
2018-04-10T16:02:15.535Z,42.10
2018-04-10T16:04:43.033Z,42.50
2018-04-10T16:07:10.774Z,42.20
2018-04-10T16:09:38.325Z,43.20
2018-04-10T16:12:06.933Z,43.30
2018-04-10T16:14:34.462Z,43.30
2018-04-10T16:17:02.794Z,44.30
2018-04-10T16:19:31.355Z,44.20
2018-04-10T16:21:59.338Z,44.70
2018-04-10T16:24:27.160Z,45.30
2018-04-10T16:26:55.572Z,46.60
2018-04-10T16:29:23.643Z,46.60
2018-04-10T16:31:53.358Z,47.10
2018-04-10T16:34:21.225Z,47.50
2018-04-10T16:36:48.760Z,47.70
2018-04-10T16:39:16.530Z,48.30
2018-04-10T16:41:45.415Z,48.40
2018-04-10T16:44:13.417Z,49.00
2018-04-10T16:46:40.986Z,48.40
2018-04-10T16:49:09.001Z,48.60
2018-04-10T16:51:36.569Z,48.70
2018-04-10T16:54:04.111Z,48.30
2018-04-10T16:56:32.583Z,48.40
2018-04-10T16:59:01.001Z,48.80
2018-04-10T17:01:28.968Z,48.70
2018-04-10T17:03:56.729Z,48.80
2018-04-10T17:06:24.206Z,48.70
2018-04-10T17:08:52.000Z,49.00
2018-04-10T17:11:20.010Z,49.70
2018-04-10T17:13:47.511Z,50.00
2018-04-10T17:16:15.187Z,50.20
2018-04-10T17:18:42.663Z,50.50
2018-04-10T17:21:10.988Z,50.80
2018-04-10T17:23:38.482Z,51.10
2018-04-10T17:26:05.989Z,51.40
2018-04-10T17:28:34.121Z,51.90
2018-04-10T17:31:01.731Z,52.20
2018-04-10T17:33:29.268Z,52.60
2018-04-10T17:35:56.963Z,53.00
2018-04-10T17:38:25.827Z,53.90
2018-04-10T17:40:53.339Z,53.80
2018-04-10T17:43:20.901Z,54.30
2018-04-10T17:45:49.167Z,55.60
2018-04-10T17:48:17.296Z,55.50
2018-04-10T17:50:44.865Z,55.80
2018-04-10T17:53:12.378Z,56.20
2018-04-10T17:55:41.524Z,57.10
2018-04-10T17:58:09.020Z,57.00
2018-04-10T18:00:36.528Z,57.50
2018-04-10T18:03:04.028Z,57.50
2018-04-10T18:05:31.541Z,57.60
2018-04-10T18:07:59.059Z,57.80
2018-04-10T18:10:26.847Z,58.10
2018-04-10T18:12:54.337Z,58.50
2018-04-10T18:15:21.851Z,58.70
2018-04-10T18:17:49.357Z,59.00
2018-04-10T18:20:17.496Z,59.50
2018-04-10T18:22:45.011Z,59.40
2018-04-10T18:25:12.641Z,59.50
2018-04-10T18:27:40.137Z,59.60
2018-04-10T18:30:08.466Z,59.60
2018-04-10T18:32:36.519Z,59.60
2018-04-10T18:35:04.517Z,59.60
2018-04-10T18:37:32.026Z,59.70
2018-04-10T18:40:00.759Z,59.40
2018-04-10T18:42:28.329Z,59.40
2018-04-10T18:44:56.365Z,59.60
2018-04-10T18:47:24.293Z,59.70
2018-04-10T18:49:52.053Z,59.80
2018-04-10T18:52:20.134Z,59.90
2018-04-10T18:54:49.581Z,59.80
2018-04-10T18:57:17.746Z,60.00
2018-04-10T18:59:46.041Z,59.80
2018-04-10T19:02:15.197Z,59.30
2018-04-10T19:04:42.741Z,59.30
2018-04-10T19:07:10.346Z,59.10
2018-04-10T19:09:38.656Z,59.10
2018-04-10T19:12:07.055Z,58.90
2018-04-10T19:14:34.571Z,58.90
2018-04-10T19:17:02.111Z,59.00
2018-04-10T19:19:30.601Z,59.00
2018-04-10T19:21:58.157Z,59.10
2018-04-10T19:24:26.311Z,59.20
2018-04-10T19:26:54.759Z,59.20
2018-04-10T19:29:22.863Z,59.20
2018-04-10T19:31:50.501Z,59.30
2018-04-10T19:34:17.999Z,59.30
2018-04-10T19:36:46.132Z,59.40
2018-04-10T19:39:13.649Z,59.60
2018-04-10T19:41:42.654Z,59.60
2018-04-10T19:44:11.008Z,60.70
2018-04-10T19:46:39.428Z,59.90
2018-04-10T19:49:07.568Z,61.00
2018-04-10T19:51:48.793Z,62.00
2018-04-10T19:54:17.021Z,62.50
2018-04-10T19:56:45.692Z,60.90
2018-04-10T19:59:19.860Z,61.70
2018-04-10T20:01:52.220Z,61.70
2018-04-10T20:04:28.291Z,63.20
2018-04-10T20:06:58.300Z,64.30
2018-04-10T20:09:26.724Z,64.20
2018-04-10T20:12:05.818Z,64.80
2018-04-10T20:14:43.180Z,65.60
2018-04-10T20:17:11.295Z,67.00
2018-04-10T20:19:38.833Z,68.00
2018-04-10T20:22:06.744Z,68.30
2018-04-10T20:24:34.253Z,68.40
2018-04-10T20:27:01.741Z,68.60
2018-04-10T20:29:29.317Z,68.20
2018-04-10T20:31:57.179Z,69.40
2018-04-10T20:34:24.690Z,68.60
2018-04-10T20:36:52.740Z,68.90
2018-04-10T20:39:20.249Z,69.70
2018-04-10T20:41:47.896Z,69.00
2018-04-10T20:44:15.628Z,69.50
2018-04-10T20:46:43.135Z,70.00
2018-04-10T20:49:10.816Z,70.20
2018-04-10T20:51:38.662Z,70.30
2018-04-10T20:54:06.633Z,70.70
2018-04-10T20:56:34.516Z,70.70
2018-04-10T20:59:02.036Z,71.20
2018-04-10T21:01:30.747Z,71.00
2018-04-10T21:03:58.243Z,71.00
2018-04-10T21:06:25.785Z,70.00
2018-04-10T21:08:53.721Z,70.50
2018-04-10T21:11:21.845Z,70.70
2018-04-10T21:13:49.338Z,71.70
2018-04-10T21:16:17.338Z,71.30
2018-04-10T21:18:45.145Z,71.40
2018-04-10T21:21:13.093Z,71.20
2018-04-10T21:23:40.575Z,71.30
2018-04-10T21:26:08.187Z,71.70
2018-04-10T21:28:35.869Z,72.20
2018-04-10T21:31:03.719Z,72.20
2018-04-10T21:33:31.232Z,72.70
2018-04-10T21:35:59.358Z,72.80
2018-04-10T21:38:26.841Z,72.90
2018-04-10T21:40:54.428Z,73.20
2018-04-10T21:43:27.669Z,73.80
2018-04-10T21:45:55.645Z,73.00
2018-04-10T21:48:23.652Z,73.20
2018-04-10T21:50:51.363Z,74.20
2018-04-10T21:53:18.868Z,73.40
2018-04-10T21:55:46.347Z,73.20
2018-04-10T21:58:14.964Z,74.00
2018-04-10T22:00:42.820Z,74.00
2018-04-10T22:03:10.589Z,73.60
2018-04-10T22:05:39.190Z,73.70
2018-04-10T22:08:06.721Z,73.70
2018-04-10T22:10:34.680Z,73.30
2018-04-10T22:13:02.602Z,74.40
2018-04-10T22:15:30.531Z,74.40
2018-04-10T22:17:58.037Z,74.40
2018-04-10T22:20:26.298Z,73.80
2018-04-10T22:22:53.816Z,73.90
2018-04-10T22:25:22.665Z,73.60
2018-04-10T22:27:50.156Z,73.40
2018-04-10T22:30:18.413Z,74.30
2018-04-10T22:32:45.872Z,74.10
2018-04-10T22:35:14.149Z,75.20
2018-04-10T22:37:41.744Z,75.20
2018-04-10T22:40:09.397Z,75.60
2018-04-10T22:42:37.237Z,75.80
2018-04-10T22:45:04.785Z,76.00
2018-04-10T22:47:33.459Z,76.90
2018-04-10T22:50:01.243Z,76.90
2018-04-10T22:52:29.107Z,77.70
2018-04-10T22:54:58.267Z,78.60
2018-04-10T22:57:25.758Z,78.60
2018-04-10T22:59:54.020Z,79.00
2018-04-10T23:02:22.296Z,79.70
2018-04-10T23:04:49.784Z,79.00
2018-04-10T23:07:18.044Z,78.90
2018-04-10T23:09:45.559Z,78.80
2018-04-10T23:12:13.312Z,80.00
2018-04-10T23:14:40.905Z,79.40
2018-04-10T23:17:08.833Z,79.40
2018-04-10T23:19:36.323Z,79.40
2018-04-10T23:22:04.177Z,79.40
2018-04-10T23:24:32.159Z,80.20
2018-04-10T23:26:59.664Z,80.20
2018-04-10T23:29:27.165Z,80.20
2018-04-10T23:31:54.649Z,82.10
2018-04-10T23:34:22.677Z,81.70
2018-04-10T23:36:50.160Z,81.90
2018-04-10T23:39:17.673Z,82.10
2018-04-10T23:41:45.482Z,82.20
2018-04-10T23:44:13.202Z,83.50
2018-04-10T23:46:41.580Z,84.20
2018-04-10T23:49:09.083Z,83.60
2018-04-10T23:51:36.862Z,83.90
2018-04-10T23:54:04.675Z,84.40
2018-04-10T23:56:32.178Z,85.20
2018-04-10T23:59:00.004Z,86.10
